sensor_id;sensor_type;location;lat;lon;timestamp;P1;durP1;ratioP1;P2;durP2;ratioP2
44842;SDS011;31884;52.538;13.820;2023-08-20T00:00:15;14.25;;;12.82;;
44842;SDS011;31884;52.538;13.820;2023-08-20T00:02:41;14.30;;;12.82;;
44842;SDS011;31884;52.538;13.820;2023-08-20T00:05:08;14.18;;;12.77;;
44842;SDS011;31884;52.538;13.820;2023-08-20T00:07:34;15.20;;;13.70;;
44842;SDS011;31884;52.538;13.820;2023-08-20T00:10:01;18.98;;;14.45;;
44842;SDS011;31884;52.538;13.820;2023-08-20T00:12:29;14.48;;;13.00;;
44842;SDS011;31884;52.538;13.820;2023-08-20T00:15:01;14.98;;;13.57;;
44842;SDS011;31884;52.538;13.820;2023-08-20T00:17:32;14.70;;;13.20;;
44842;SDS011;31884;52.538;13.820;2023-08-20T00:19:59;14.10;;;12.70;;
44842;SDS011;31884;52.538;13.820;2023-08-20T00:22:25;14.80;;;13.30;;
44842;SDS011;31884;52.538;13.820;2023-08-20T00:24:54;14.63;;;12.77;;
44842;SDS011;31884;52.538;13.820;2023-08-20T00:27:21;14.52;;;13.02;;
44842;SDS011;31884;52.538;13.820;2023-08-20T00:29:46;12.82;;;11.63;;
44842;SDS011;31884;52.538;13.820;2023-08-20T00:32:12;14.80;;;13.40;;
44842;SDS011;31884;52.538;13.820;2023-08-20T00:34:39;13.00;;;11.70;;
44842;SDS011;31884;52.538;13.820;2023-08-20T00:37:05;14.23;;;12.85;;
44842;SDS011;31884;52.538;13.820;2023-08-20T00:39:30;14.32;;;12.82;;
44842;SDS011;31884;52.538;13.820;2023-08-20T00:41:56;14.98;;;12.75;;
44842;SDS011;31884;52.538;13.820;2023-08-20T00:44:22;13.85;;;12.57;;
44842;SDS011;31884;52.538;13.820;2023-08-20T00:46:47;13.68;;;12.27;;
44842;SDS011;31884;52.538;13.820;2023-08-20T00:49:13;12.85;;;11.65;;
44842;SDS011;31884;52.538;13.820;2023-08-20T00:51:39;13.32;;;12.13;;
44842;SDS011;31884;52.538;13.820;2023-08-20T00:54:04;13.82;;;12.43;;
44842;SDS011;31884;52.538;13.820;2023-08-20T00:56:30;15.88;;;13.50;;
44842;SDS011;31884;52.538;13.820;2023-08-20T00:58:56;13.40;;;11.93;;
44842;SDS011;31884;52.538;13.820;2023-08-20T01:01:23;14.27;;;12.88;;
44842;SDS011;31884;52.538;13.820;2023-08-20T01:03:48;13.63;;;12.32;;
44842;SDS011;31884;52.538;13.820;2023-08-20T01:06:17;14.10;;;12.57;;
44842;SDS011;31884;52.538;13.820;2023-08-20T01:08:52;13.85;;;12.55;;
44842;SDS011;31884;52.538;13.820;2023-08-20T01:11:25;14.32;;;12.93;;
44842;SDS011;31884;52.538;13.820;2023-08-20T01:13:55;14.07;;;12.70;;
44842;SDS011;31884;52.538;13.820;2023-08-20T01:16:20;13.98;;;12.50;;
44842;SDS011;31884;52.538;13.820;2023-08-20T01:18:47;13.48;;;12.18;;
44842;SDS011;31884;52.538;13.820;2023-08-20T01:21:20;13.82;;;12.07;;
44842;SDS011;31884;52.538;13.820;2023-08-20T01:31:51;12.25;;;10.95;;
44842;SDS011;31884;52.538;13.820;2023-08-20T01:34:19;12.02;;;10.93;;
44842;SDS011;31884;52.538;13.820;2023-08-20T01:36:45;13.75;;;12.45;;
44842;SDS011;31884;52.538;13.820;2023-08-20T01:39:11;12.93;;;11.73;;
44842;SDS011;31884;52.538;13.820;2023-08-20T01:41:36;12.77;;;11.50;;
44842;SDS011;31884;52.538;13.820;2023-08-20T01:44:02;14.45;;;12.63;;
44842;SDS011;31884;52.538;13.820;2023-08-20T01:46:27;13.43;;;12.13;;
44842;SDS011;31884;52.538;13.820;2023-08-20T01:48:53;14.30;;;12.65;;
44842;SDS011;31884;52.538;13.820;2023-08-20T01:51:18;15.23;;;13.73;;
44842;SDS011;31884;52.538;13.820;2023-08-20T02:00:28;15.40;;;13.82;;
44842;SDS011;31884;52.538;13.820;2023-08-20T02:02:55;15.88;;;14.25;;
44842;SDS011;31884;52.538;13.820;2023-08-20T02:05:20;17.30;;;12.02;;
44842;SDS011;31884;52.538;13.820;2023-08-20T02:07:46;14.48;;;12.85;;
44842;SDS011;31884;52.538;13.820;2023-08-20T02:10:11;14.90;;;13.43;;
44842;SDS011;31884;52.538;13.820;2023-08-20T02:12:37;14.38;;;12.98;;
44842;SDS011;31884;52.538;13.820;2023-08-20T02:15:02;15.38;;;13.63;;
44842;SDS011;31884;52.538;13.820;2023-08-20T02:17:28;16.25;;;14.57;;
44842;SDS011;31884;52.538;13.820;2023-08-20T02:19:54;19.77;;;14.98;;
44842;SDS011;31884;52.538;13.820;2023-08-20T02:22:19;15.50;;;13.75;;
44842;SDS011;31884;52.538;13.820;2023-08-20T02:24:45;15.43;;;13.82;;
44842;SDS011;31884;52.538;13.820;2023-08-20T02:27:11;15.02;;;13.57;;
44842;SDS011;31884;52.538;13.820;2023-08-20T02:29:36;15.80;;;14.30;;
44842;SDS011;31884;52.538;13.820;2023-08-20T02:32:02;15.35;;;13.85;;
44842;SDS011;31884;52.538;13.820;2023-08-20T02:34:27;14.82;;;13.18;;
44842;SDS011;31884;52.538;13.820;2023-08-20T02:36:53;14.32;;;12.90;;
44842;SDS011;31884;52.538;13.820;2023-08-20T02:39:20;14.15;;;12.73;;
44842;SDS011;31884;52.538;13.820;2023-08-20T02:41:45;14.25;;;12.75;;
44842;SDS011;31884;52.538;13.820;2023-08-20T02:44:11;15.48;;;13.88;;
44842;SDS011;31884;52.538;13.820;2023-08-20T02:46:37;15.65;;;14.15;;
44842;SDS011;31884;52.538;13.820;2023-08-20T02:49:03;16.17;;;13.27;;
44842;SDS011;31884;52.538;13.820;2023-08-20T02:51:29;14.50;;;13.05;;
44842;SDS011;31884;52.538;13.820;2023-08-20T02:53:54;14.35;;;12.95;;
44842;SDS011;31884;52.538;13.820;2023-08-20T02:56:19;14.60;;;13.20;;
44842;SDS011;31884;52.538;13.820;2023-08-20T02:58:45;14.85;;;13.35;;
44842;SDS011;31884;52.538;13.820;2023-08-20T03:01:21;14.57;;;13.00;;
44842;SDS011;31884;52.538;13.820;2023-08-20T03:03:48;16.05;;;14.32;;
44842;SDS011;31884;52.538;13.820;2023-08-20T03:06:13;16.88;;;14.73;;
44842;SDS011;31884;52.538;13.820;2023-08-20T03:08:39;14.38;;;12.88;;
44842;SDS011;31884;52.538;13.820;2023-08-20T03:11:04;14.73;;;13.20;;
44842;SDS011;31884;52.538;13.820;2023-08-20T03:13:30;16.10;;;14.07;;
44842;SDS011;31884;52.538;13.820;2023-08-20T03:15:55;16.98;;;15.23;;
44842;SDS011;31884;52.538;13.820;2023-08-20T03:18:21;17.90;;;16.10;;
44842;SDS011;31884;52.538;13.820;2023-08-20T03:20:46;16.50;;;14.68;;
44842;SDS011;31884;52.538;13.820;2023-08-20T03:23:12;14.73;;;13.07;;
44842;SDS011;31884;52.538;13.820;2023-08-20T03:25:38;16.05;;;14.35;;
44842;SDS011;31884;52.538;13.820;2023-08-20T03:28:03;14.98;;;13.57;;
44842;SDS011;31884;52.538;13.820;2023-08-20T03:30:29;15.43;;;13.98;;
44842;SDS011;31884;52.538;13.820;2023-08-20T03:32:54;15.13;;;13.55;;
44842;SDS011;31884;52.538;13.820;2023-08-20T03:35:20;15.13;;;13.60;;
44842;SDS011;31884;52.538;13.820;2023-08-20T03:37:45;15.43;;;13.80;;
44842;SDS011;31884;52.538;13.820;2023-08-20T03:40:11;15.88;;;14.10;;
44842;SDS011;31884;52.538;13.820;2023-08-20T03:42:36;17.25;;;13.55;;
44842;SDS011;31884;52.538;13.820;2023-08-20T03:45:02;16.42;;;13.98;;
44842;SDS011;31884;52.538;13.820;2023-08-20T03:47:28;14.57;;;13.18;;
44842;SDS011;31884;52.538;13.820;2023-08-20T03:49:54;14.07;;;12.20;;
44842;SDS011;31884;52.538;13.820;2023-08-20T03:52:19;14.27;;;12.63;;
44842;SDS011;31884;52.538;13.820;2023-08-20T03:54:45;13.15;;;11.82;;
44842;SDS011;31884;52.538;13.820;2023-08-20T03:57:10;14.70;;;13.07;;
44842;SDS011;31884;52.538;13.820;2023-08-20T03:59:36;14.70;;;12.98;;
44842;SDS011;31884;52.538;13.820;2023-08-20T04:02:01;14.93;;;12.45;;
44842;SDS011;31884;52.538;13.820;2023-08-20T04:04:27;12.50;;;11.30;;
44842;SDS011;31884;52.538;13.820;2023-08-20T04:06:53;13.77;;;12.35;;
44842;SDS011;31884;52.538;13.820;2023-08-20T04:09:18;12.68;;;11.43;;
44842;SDS011;31884;52.538;13.820;2023-08-20T04:11:44;14.82;;;13.23;;
44842;SDS011;31884;52.538;13.820;2023-08-20T04:14:09;14.77;;;12.70;;
44842;SDS011;31884;52.538;13.820;2023-08-20T04:16:35;15.45;;;12.18;;
44842;SDS011;31884;52.538;13.820;2023-08-20T04:19:00;17.45;;;12.13;;
44842;SDS011;31884;52.538;13.820;2023-08-20T04:21:26;13.73;;;12.30;;
44842;SDS011;31884;52.538;13.820;2023-08-20T04:23:51;16.10;;;13.48;;
44842;SDS011;31884;52.538;13.820;2023-08-20T04:26:17;14.07;;;12.55;;
44842;SDS011;31884;52.538;13.820;2023-08-20T04:28:43;13.77;;;12.15;;
44842;SDS011;31884;52.538;13.820;2023-08-20T04:31:08;14.23;;;12.43;;
44842;SDS011;31884;52.538;13.820;2023-08-20T04:33:34;14.32;;;11.25;;
44842;SDS011;31884;52.538;13.820;2023-08-20T04:35:59;12.57;;;11.30;;
44842;SDS011;31884;52.538;13.820;2023-08-20T04:38:24;13.10;;;11.65;;
44842;SDS011;31884;52.538;13.820;2023-08-20T04:40:50;11.57;;;10.50;;
44842;SDS011;31884;52.538;13.820;2023-08-20T04:43:16;12.95;;;11.55;;
44842;SDS011;31884;52.538;13.820;2023-08-20T04:45:41;12.65;;;11.38;;
44842;SDS011;31884;52.538;13.820;2023-08-20T04:48:07;11.15;;;10.07;;
44842;SDS011;31884;52.538;13.820;2023-08-20T04:50:33;15.52;;;12.18;;
44842;SDS011;31884;52.538;13.820;2023-08-20T04:52:58;11.52;;;10.38;;
44842;SDS011;31884;52.538;13.820;2023-08-20T04:55:25;11.60;;;9.63;;
44842;SDS011;31884;52.538;13.820;2023-08-20T04:57:50;12.52;;;10.05;;
44842;SDS011;31884;52.538;13.820;2023-08-20T05:00:16;13.93;;;10.05;;
44842;SDS011;31884;52.538;13.820;2023-08-20T05:02:41;9.40;;;8.60;;
44842;SDS011;31884;52.538;13.820;2023-08-20T05:05:07;12.02;;;8.85;;
44842;SDS011;31884;52.538;13.820;2023-08-20T05:07:33;10.93;;;8.63;;
44842;SDS011;31884;52.538;13.820;2023-08-20T05:09:58;9.25;;;7.90;;
44842;SDS011;31884;52.538;13.820;2023-08-20T05:12:23;9.55;;;8.63;;
44842;SDS011;31884;52.538;13.820;2023-08-20T05:14:49;9.57;;;8.52;;
44842;SDS011;31884;52.538;13.820;2023-08-20T05:17:14;8.45;;;7.60;;
44842;SDS011;31884;52.538;13.820;2023-08-20T05:19:40;7.95;;;7.20;;
44842;SDS011;31884;52.538;13.820;2023-08-20T05:22:05;9.23;;;7.28;;
44842;SDS011;31884;52.538;13.820;2023-08-20T05:24:31;7.95;;;7.25;;
44842;SDS011;31884;52.538;13.820;2023-08-20T05:27:06;8.00;;;7.20;;
44842;SDS011;31884;52.538;13.820;2023-08-20T05:29:33;7.40;;;6.68;;
44842;SDS011;31884;52.538;13.820;2023-08-20T05:31:58;7.78;;;6.63;;
44842;SDS011;31884;52.538;13.820;2023-08-20T05:34:24;7.15;;;6.45;;
44842;SDS011;31884;52.538;13.820;2023-08-20T05:36:49;6.70;;;6.10;;
44842;SDS011;31884;52.538;13.820;2023-08-20T05:39:15;7.13;;;6.43;;
44842;SDS011;31884;52.538;13.820;2023-08-20T05:41:40;6.70;;;5.55;;
44842;SDS011;31884;52.538;13.820;2023-08-20T05:44:06;6.13;;;5.20;;
44842;SDS011;31884;52.538;13.820;2023-08-20T05:46:31;7.30;;;6.22;;
44842;SDS011;31884;52.538;13.820;2023-08-20T05:48:57;6.90;;;6.25;;
44842;SDS011;31884;52.538;13.820;2023-08-20T05:51:22;5.57;;;5.07;;
44842;SDS011;31884;52.538;13.820;2023-08-20T05:53:48;6.30;;;5.70;;
44842;SDS011;31884;52.538;13.820;2023-08-20T05:56:13;6.22;;;5.35;;
44842;SDS011;31884;52.538;13.820;2023-08-20T05:58:39;6.32;;;5.70;;
44842;SDS011;31884;52.538;13.820;2023-08-20T06:01:04;5.97;;;5.00;;
44842;SDS011;31884;52.538;13.820;2023-08-20T06:03:30;5.97;;;4.82;;
44842;SDS011;31884;52.538;13.820;2023-08-20T06:05:57;6.28;;;5.55;;
44842;SDS011;31884;52.538;13.820;2023-08-20T06:08:23;4.80;;;4.35;;
44842;SDS011;31884;52.538;13.820;2023-08-20T06:10:49;5.43;;;4.63;;
44842;SDS011;31884;52.538;13.820;2023-08-20T06:13:15;5.03;;;4.53;;
44842;SDS011;31884;52.538;13.820;2023-08-20T06:15:40;4.72;;;4.32;;
44842;SDS011;31884;52.538;13.820;2023-08-20T06:18:05;6.22;;;4.75;;
44842;SDS011;31884;52.538;13.820;2023-08-20T06:20:31;5.65;;;4.50;;
44842;SDS011;31884;52.538;13.820;2023-08-20T06:22:57;5.25;;;4.75;;
44842;SDS011;31884;52.538;13.820;2023-08-20T06:25:22;5.55;;;5.05;;
44842;SDS011;31884;52.538;13.820;2023-08-20T06:27:48;5.47;;;4.97;;
44842;SDS011;31884;52.538;13.820;2023-08-20T06:30:13;5.80;;;4.65;;
44842;SDS011;31884;52.538;13.820;2023-08-20T06:32:39;5.97;;;5.47;;
44842;SDS011;31884;52.538;13.820;2023-08-20T06:35:05;6.70;;;6.00;;
44842;SDS011;31884;52.538;13.820;2023-08-20T06:37:30;5.88;;;5.38;;
44842;SDS011;31884;52.538;13.820;2023-08-20T06:39:56;6.32;;;5.70;;
44842;SDS011;31884;52.538;13.820;2023-08-20T06:42:21;6.55;;;5.85;;
44842;SDS011;31884;52.538;13.820;2023-08-20T06:44:47;10.35;;;5.18;;
44842;SDS011;31884;52.538;13.820;2023-08-20T06:47:12;5.57;;;5.15;;
44842;SDS011;31884;52.538;13.820;2023-08-20T06:49:40;6.30;;;4.97;;
44842;SDS011;31884;52.538;13.820;2023-08-20T06:52:05;6.05;;;5.45;;
44842;SDS011;31884;52.538;13.820;2023-08-20T06:54:31;6.63;;;5.88;;
44842;SDS011;31884;52.538;13.820;2023-08-20T06:56:56;6.32;;;5.72;;
44842;SDS011;31884;52.538;13.820;2023-08-20T06:59:21;7.93;;;6.10;;
44842;SDS011;31884;52.538;13.820;2023-08-20T07:01:48;6.28;;;5.32;;
44842;SDS011;31884;52.538;13.820;2023-08-20T07:04:13;6.93;;;6.20;;
44842;SDS011;31884;52.538;13.820;2023-08-20T07:06:39;6.10;;;5.53;;
44842;SDS011;31884;52.538;13.820;2023-08-20T07:09:04;7.03;;;6.43;;
44842;SDS011;31884;52.538;13.820;2023-08-20T07:11:30;6.15;;;5.55;;
44842;SDS011;31884;52.538;13.820;2023-08-20T07:13:55;6.55;;;5.95;;
44842;SDS011;31884;52.538;13.820;2023-08-20T07:16:21;6.25;;;5.65;;
44842;SDS011;31884;52.538;13.820;2023-08-20T07:18:46;6.53;;;5.82;;
44842;SDS011;31884;52.538;13.820;2023-08-20T07:21:12;6.97;;;6.38;;
44842;SDS011;31884;52.538;13.820;2023-08-20T07:23:37;6.90;;;6.10;;
44842;SDS011;31884;52.538;13.820;2023-08-20T07:26:04;5.88;;;5.28;;
44842;SDS011;31884;52.538;13.820;2023-08-20T07:28:30;7.05;;;6.35;;
44842;SDS011;31884;52.538;13.820;2023-08-20T07:31:15;7.50;;;6.38;;
44842;SDS011;31884;52.538;13.820;2023-08-20T07:33:40;6.68;;;5.90;;
44842;SDS011;31884;52.538;13.820;2023-08-20T07:36:06;6.53;;;5.82;;
44842;SDS011;31884;52.538;13.820;2023-08-20T07:38:31;6.53;;;5.85;;
44842;SDS011;31884;52.538;13.820;2023-08-20T07:40:57;7.15;;;5.57;;
44842;SDS011;31884;52.538;13.820;2023-08-20T07:43:23;6.20;;;5.60;;
44842;SDS011;31884;52.538;13.820;2023-08-20T07:45:49;6.93;;;6.22;;
44842;SDS011;31884;52.538;13.820;2023-08-20T07:48:15;6.40;;;5.85;;
44842;SDS011;31884;52.538;13.820;2023-08-20T07:50:40;6.55;;;5.68;;
44842;SDS011;31884;52.538;13.820;2023-08-20T07:53:05;5.78;;;5.28;;
44842;SDS011;31884;52.538;13.820;2023-08-20T07:55:31;6.70;;;6.10;;
44842;SDS011;31884;52.538;13.820;2023-08-20T07:57:56;5.88;;;5.28;;
44842;SDS011;31884;52.538;13.820;2023-08-20T08:00:22;5.45;;;5.05;;
44842;SDS011;31884;52.538;13.820;2023-08-20T08:02:47;5.45;;;4.93;;
44842;SDS011;31884;52.538;13.820;2023-08-20T08:05:13;5.75;;;5.18;;
44842;SDS011;31884;52.538;13.820;2023-08-20T08:07:39;5.65;;;5.15;;
44842;SDS011;31884;52.538;13.820;2023-08-20T08:10:04;6.68;;;5.32;;
44842;SDS011;31884;52.538;13.820;2023-08-20T08:12:30;5.95;;;5.45;;
44842;SDS011;31884;52.538;13.820;2023-08-20T08:14:56;6.75;;;4.80;;
44842;SDS011;31884;52.538;13.820;2023-08-20T08:17:22;5.00;;;4.60;;
44842;SDS011;31884;52.538;13.820;2023-08-20T08:19:47;6.18;;;5.43;;
44842;SDS011;31884;52.538;13.820;2023-08-20T08:22:13;5.72;;;5.22;;
44842;SDS011;31884;52.538;13.820;2023-08-20T08:24:39;5.78;;;5.28;;
44842;SDS011;31884;52.538;13.820;2023-08-20T08:27:06;6.03;;;5.35;;
44842;SDS011;31884;52.538;13.820;2023-08-20T08:29:32;6.72;;;5.60;;
44842;SDS011;31884;52.538;13.820;2023-08-20T08:31:57;5.38;;;4.97;;
44842;SDS011;31884;52.538;13.820;2023-08-20T08:34:23;5.65;;;5.10;;
44842;SDS011;31884;52.538;13.820;2023-08-20T08:36:48;6.07;;;4.72;;
44842;SDS011;31884;52.538;13.820;2023-08-20T08:39:14;5.43;;;5.03;;
44842;SDS011;31884;52.538;13.820;2023-08-20T08:41:39;5.85;;;5.30;;
44842;SDS011;31884;52.538;13.820;2023-08-20T08:44:07;6.43;;;5.38;;
44842;SDS011;31884;52.538;13.820;2023-08-20T08:46:34;5.85;;;5.35;;
44842;SDS011;31884;52.538;13.820;2023-08-20T08:49:01;5.95;;;5.32;;
44842;SDS011;31884;52.538;13.820;2023-08-20T08:51:28;5.82;;;5.32;;
44842;SDS011;31884;52.538;13.820;2023-08-20T08:57:16;5.57;;;4.85;;
44842;SDS011;31884;52.538;13.820;2023-08-20T08:59:43;5.43;;;4.90;;
44842;SDS011;31884;52.538;13.820;2023-08-20T09:02:09;5.97;;;5.40;;
44842;SDS011;31884;52.538;13.820;2023-08-20T09:04:42;6.13;;;5.53;;
44842;SDS011;31884;52.538;13.820;2023-08-20T09:07:14;5.60;;;5.10;;
44842;SDS011;31884;52.538;13.820;2023-08-20T09:09:43;4.85;;;4.45;;
44842;SDS011;31884;52.538;13.820;2023-08-20T09:12:14;4.95;;;4.45;;
44842;SDS011;31884;52.538;13.820;2023-08-20T09:14:43;6.18;;;5.53;;
44842;SDS011;31884;52.538;13.820;2023-08-20T09:17:14;5.72;;;4.72;;
44842;SDS011;31884;52.538;13.820;2023-08-20T09:19:41;7.43;;;5.45;;
44842;SDS011;31884;52.538;13.820;2023-08-20T09:22:10;7.25;;;5.43;;
44842;SDS011;31884;52.538;13.820;2023-08-20T09:24:41;6.10;;;4.97;;
44842;SDS011;31884;52.538;13.820;2023-08-20T09:27:09;5.13;;;4.65;;
44842;SDS011;31884;52.538;13.820;2023-08-20T09:29:46;5.25;;;4.72;;
44842;SDS011;31884;52.538;13.820;2023-08-20T09:32:23;5.70;;;4.75;;
44842;SDS011;31884;52.538;13.820;2023-08-20T09:34:53;5.53;;;4.70;;
44842;SDS011;31884;52.538;13.820;2023-08-20T09:37:20;7.47;;;5.07;;
44842;SDS011;31884;52.538;13.820;2023-08-20T09:39:46;5.45;;;4.95;;
44842;SDS011;31884;52.538;13.820;2023-08-20T09:42:12;5.90;;;4.97;;
44842;SDS011;31884;52.538;13.820;2023-08-20T09:44:39;6.45;;;5.38;;
44842;SDS011;31884;52.538;13.820;2023-08-20T09:47:07;5.53;;;5.03;;
44842;SDS011;31884;52.538;13.820;2023-08-20T09:49:38;5.28;;;4.78;;
44842;SDS011;31884;52.538;13.820;2023-08-20T09:52:06;5.32;;;4.82;;
44842;SDS011;31884;52.538;13.820;2023-08-20T09:57:20;7.65;;;5.22;;
44842;SDS011;31884;52.538;13.820;2023-08-20T09:59:54;5.93;;;5.32;;
44842;SDS011;31884;52.538;13.820;2023-08-20T10:02:20;6.15;;;5.18;;
44842;SDS011;31884;52.538;13.820;2023-08-20T10:04:47;5.53;;;5.03;;
44842;SDS011;31884;52.538;13.820;2023-08-20T10:07:13;5.68;;;5.07;;
44842;SDS011;31884;52.538;13.820;2023-08-20T10:09:39;5.95;;;5.03;;
44842;SDS011;31884;52.538;13.820;2023-08-20T10:12:07;6.28;;;4.90;;
44842;SDS011;31884;52.538;13.820;2023-08-20T10:17:55;6.03;;;5.22;;
44842;SDS011;31884;52.538;13.820;2023-08-20T10:20:22;6.13;;;5.53;;
44842;SDS011;31884;52.538;13.820;2023-08-20T10:22:49;6.10;;;5.53;;
44842;SDS011;31884;52.538;13.820;2023-08-20T10:25:25;6.32;;;5.78;;
44842;SDS011;31884;52.538;13.820;2023-08-20T10:27:52;6.95;;;6.35;;
44842;SDS011;31884;52.538;13.820;2023-08-20T10:30:19;6.28;;;5.55;;
44842;SDS011;31884;52.538;13.820;2023-08-20T10:32:51;6.57;;;5.97;;
44842;SDS011;31884;52.538;13.820;2023-08-20T10:35:28;7.00;;;6.25;;
44842;SDS011;31884;52.538;13.820;2023-08-20T10:38:11;6.22;;;5.63;;
44842;SDS011;31884;52.538;13.820;2023-08-20T10:40:57;6.75;;;6.05;;
44842;SDS011;31884;52.538;13.820;2023-08-20T10:43:23;7.07;;;6.18;;
44842;SDS011;31884;52.538;13.820;2023-08-20T10:48:40;8.35;;;6.50;;
44842;SDS011;31884;52.538;13.820;2023-08-20T10:51:13;8.98;;;5.85;;
44842;SDS011;31884;52.538;13.820;2023-08-20T10:53:40;7.47;;;6.60;;
44842;SDS011;31884;52.538;13.820;2023-08-20T10:56:08;6.88;;;6.28;;
44842;SDS011;31884;52.538;13.820;2023-08-20T10:58:35;6.93;;;6.22;;
44842;SDS011;31884;52.538;13.820;2023-08-20T11:01:12;8.38;;;6.25;;
44842;SDS011;31884;52.538;13.820;2023-08-20T11:03:42;7.20;;;6.50;;
44842;SDS011;31884;52.538;13.820;2023-08-20T11:06:09;7.85;;;6.38;;
44842;SDS011;31884;52.538;13.820;2023-08-20T11:08:36;6.95;;;6.25;;
44842;SDS011;31884;52.538;13.820;2023-08-20T11:11:02;6.25;;;5.65;;
44842;SDS011;31884;52.538;13.820;2023-08-20T11:13:28;6.22;;;5.63;;
44842;SDS011;31884;52.538;13.820;2023-08-20T11:15:57;5.68;;;5.05;;
44842;SDS011;31884;52.538;13.820;2023-08-20T11:18:24;8.98;;;5.80;;
44842;SDS011;31884;52.538;13.820;2023-08-20T11:20:50;6.18;;;5.57;;
44842;SDS011;31884;52.538;13.820;2023-08-20T11:23:16;6.38;;;5.70;;
44842;SDS011;31884;52.538;13.820;2023-08-20T11:25:42;6.10;;;5.50;;
44842;SDS011;31884;52.538;13.820;2023-08-20T11:28:08;7.85;;;5.80;;
44842;SDS011;31884;52.538;13.820;2023-08-20T11:30:34;6.07;;;5.55;;
44842;SDS011;31884;52.538;13.820;2023-08-20T11:33:00;5.93;;;5.32;;
44842;SDS011;31884;52.538;13.820;2023-08-20T11:35:25;6.75;;;6.05;;
44842;SDS011;31884;52.538;13.820;2023-08-20T11:37:52;5.97;;;5.47;;
44842;SDS011;31884;52.538;13.820;2023-08-20T11:40:20;5.97;;;5.38;;
44842;SDS011;31884;52.538;13.820;2023-08-20T11:42:46;7.85;;;5.55;;
44842;SDS011;31884;52.538;13.820;2023-08-20T11:45:11;5.82;;;5.22;;
44842;SDS011;31884;52.538;13.820;2023-08-20T11:47:40;6.57;;;5.20;;
44842;SDS011;31884;52.538;13.820;2023-08-20T11:50:07;5.97;;;4.82;;
44842;SDS011;31884;52.538;13.820;2023-08-20T11:52:34;5.35;;;4.85;;
44842;SDS011;31884;52.538;13.820;2023-08-20T11:55:01;5.60;;;4.93;;
44842;SDS011;31884;52.538;13.820;2023-08-20T11:57:28;5.40;;;4.55;;
44842;SDS011;31884;52.538;13.820;2023-08-20T11:59:55;4.97;;;4.00;;
44842;SDS011;31884;52.538;13.820;2023-08-20T12:02:27;5.40;;;3.95;;
44842;SDS011;31884;52.538;13.820;2023-08-20T12:04:55;3.50;;;3.20;;
44842;SDS011;31884;52.538;13.820;2023-08-20T12:07:24;5.35;;;4.50;;
44842;SDS011;31884;52.538;13.820;2023-08-20T12:09:51;4.07;;;3.63;;
44842;SDS011;31884;52.538;13.820;2023-08-20T12:12:16;5.03;;;3.65;;
44842;SDS011;31884;52.538;13.820;2023-08-20T12:14:45;4.40;;;3.45;;
44842;SDS011;31884;52.538;13.820;2023-08-20T12:17:11;4.28;;;3.60;;
44842;SDS011;31884;52.538;13.820;2023-08-20T12:19:36;3.60;;;3.30;;
44842;SDS011;31884;52.538;13.820;2023-08-20T12:22:02;3.58;;;2.70;;
44842;SDS011;31884;52.538;13.820;2023-08-20T12:24:28;3.25;;;2.80;;
44842;SDS011;31884;52.538;13.820;2023-08-20T12:26:54;3.80;;;3.00;;
44842;SDS011;31884;52.538;13.820;2023-08-20T12:29:20;2.90;;;2.60;;
44842;SDS011;31884;52.538;13.820;2023-08-20T12:31:45;2.80;;;2.60;;
44842;SDS011;31884;52.538;13.820;2023-08-20T12:34:11;3.22;;;2.92;;
44842;SDS011;31884;52.538;13.820;2023-08-20T12:36:36;2.65;;;2.45;;
44842;SDS011;31884;52.538;13.820;2023-08-20T12:39:02;1.98;;;1.88;;
44842;SDS011;31884;52.538;13.820;2023-08-20T12:41:29;3.17;;;2.38;;
44842;SDS011;31884;52.538;13.820;2023-08-20T12:43:55;2.28;;;2.08;;
44842;SDS011;31884;52.538;13.820;2023-08-20T12:46:21;2.75;;;2.53;;
44842;SDS011;31884;52.538;13.820;2023-08-20T12:48:46;2.33;;;2.13;;
44842;SDS011;31884;52.538;13.820;2023-08-20T12:51:12;3.78;;;2.03;;
44842;SDS011;31884;52.538;13.820;2023-08-20T12:53:39;2.33;;;2.03;;
44842;SDS011;31884;52.538;13.820;2023-08-20T12:56:05;2.20;;;2.03;;
44842;SDS011;31884;52.538;13.820;2023-08-20T12:58:31;2.22;;;1.85;;
44842;SDS011;31884;52.538;13.820;2023-08-20T13:00:56;4.40;;;2.20;;
44842;SDS011;31884;52.538;13.820;2023-08-20T13:03:22;2.10;;;1.83;;
44842;SDS011;31884;52.538;13.820;2023-08-20T13:05:47;2.38;;;1.83;;
44842;SDS011;31884;52.538;13.820;2023-08-20T13:08:13;2.20;;;1.90;;
44842;SDS011;31884;52.538;13.820;2023-08-20T13:10:39;2.00;;;1.80;;
44842;SDS011;31884;52.538;13.820;2023-08-20T13:13:06;1.77;;;1.67;;
44842;SDS011;31884;52.538;13.820;2023-08-20T13:15:35;1.90;;;1.73;;
44842;SDS011;31884;52.538;13.820;2023-08-20T13:18:01;2.53;;;1.65;;
44842;SDS011;31884;52.538;13.820;2023-08-20T13:20:28;1.80;;;1.70;;
44842;SDS011;31884;52.538;13.820;2023-08-20T13:22:54;2.13;;;1.77;;
44842;SDS011;31884;52.538;13.820;2023-08-20T13:25:19;1.90;;;1.80;;
44842;SDS011;31884;52.538;13.820;2023-08-20T13:27:48;1.50;;;1.40;;
44842;SDS011;31884;52.538;13.820;2023-08-20T13:30:14;1.70;;;1.60;;
44842;SDS011;31884;52.538;13.820;2023-08-20T13:32:40;2.10;;;1.90;;
44842;SDS011;31884;52.538;13.820;2023-08-20T13:35:06;2.15;;;1.70;;
44842;SDS011;31884;52.538;13.820;2023-08-20T13:37:32;2.10;;;1.88;;
44842;SDS011;31884;52.538;13.820;2023-08-20T13:39:59;1.85;;;1.67;;
44842;SDS011;31884;52.538;13.820;2023-08-20T13:42:25;2.50;;;1.83;;
44842;SDS011;31884;52.538;13.820;2023-08-20T13:44:50;2.55;;;1.88;;
44842;SDS011;31884;52.538;13.820;2023-08-20T13:47:16;1.83;;;1.60;;
44842;SDS011;31884;52.538;13.820;2023-08-20T13:49:41;2.53;;;2.05;;
44842;SDS011;31884;52.538;13.820;2023-08-20T13:52:07;1.90;;;1.70;;
44842;SDS011;31884;52.538;13.820;2023-08-20T13:54:34;2.13;;;1.70;;
44842;SDS011;31884;52.538;13.820;2023-08-20T13:57:00;3.40;;;1.75;;
44842;SDS011;31884;52.538;13.820;2023-08-20T13:59:25;2.03;;;1.80;;
44842;SDS011;31884;52.538;13.820;2023-08-20T14:01:51;2.90;;;1.90;;
44842;SDS011;31884;52.538;13.820;2023-08-20T14:04:16;1.90;;;1.70;;
44842;SDS011;31884;52.538;13.820;2023-08-20T14:06:42;2.95;;;1.70;;
44842;SDS011;31884;52.538;13.820;2023-08-20T14:09:07;4.78;;;2.20;;
44842;SDS011;31884;52.538;13.820;2023-08-20T14:11:33;4.85;;;1.67;;
44842;SDS011;31884;52.538;13.820;2023-08-20T14:13:58;3.08;;;1.60;;
44842;SDS011;31884;52.538;13.820;2023-08-20T14:16:24;1.77;;;1.67;;
44842;SDS011;31884;52.538;13.820;2023-08-20T14:18:49;2.53;;;1.55;;
44842;SDS011;31884;52.538;13.820;2023-08-20T14:21:15;2.30;;;1.55;;
44842;SDS011;31884;52.538;13.820;2023-08-20T14:23:41;2.30;;;1.80;;
44842;SDS011;31884;52.538;13.820;2023-08-20T14:26:07;1.77;;;1.58;;
44842;SDS011;31884;52.538;13.820;2023-08-20T14:28:33;1.83;;;1.70;;
44842;SDS011;31884;52.538;13.820;2023-08-20T14:31:01;1.77;;;1.50;;
44842;SDS011;31884;52.538;13.820;2023-08-20T14:33:28;2.42;;;1.60;;
44842;SDS011;31884;52.538;13.820;2023-08-20T14:35:55;1.77;;;1.52;;
44842;SDS011;31884;52.538;13.820;2023-08-20T14:38:21;2.42;;;1.35;;
44842;SDS011;31884;52.538;13.820;2023-08-20T14:40:46;1.70;;;1.30;;
44842;SDS011;31884;52.538;13.820;2023-08-20T14:43:12;1.25;;;1.15;;
44842;SDS011;31884;52.538;13.820;2023-08-20T14:45:37;1.30;;;1.20;;
44842;SDS011;31884;52.538;13.820;2023-08-20T14:48:03;1.23;;;1.08;;